Price, Arkansas
Current Conditions -  °F | °C
As of 12:53 PM on Sunday 21 Dec 2014 (Local Time) from KHOT Reporting Station
Overcast Overcast  
Wind Chill: 52°   Ceiling: 5000
Heat Index: 52°   Visibility: 10mi
Dew Point: 37°   Wind: 7mph
Humidity: 57%   Direction: 150°SSE
Pressure: 30.05"   Gusts: NA
Location:  34.5331°N, 93.0035°W
Report Text: KHOT 211853Z AUTO 15006KT 10SM FEW037 OVC050 11/03 A3005 RMK AO2 SLP177 T01110028
Loading
Personal Weather Stations






























Interactive Weather Map New forecast layout! Learn more

10-Day Weather Forecast

Advertisements
Track Severe Weather on mobile